sensor_id;sensor_type;location;lat;lon;timestamp;temperature;humidity
39847;DHT22;25517;52.422;10.782;2023-06-14T00:01:16;15.70;75.20
39847;DHT22;25517;52.422;10.782;2023-06-14T00:03:42;15.60;75.40
39847;DHT22;25517;52.422;10.782;2023-06-14T00:06:08;15.60;75.40
39847;DHT22;25517;52.422;10.782;2023-06-14T00:08:33;15.50;75.80
39847;DHT22;25517;52.422;10.782;2023-06-14T00:10:59;15.50;76.50
39847;DHT22;25517;52.422;10.782;2023-06-14T00:13:25;15.40;76.40
39847;DHT22;25517;52.422;10.782;2023-06-14T00:15:51;15.40;76.90
39847;DHT22;25517;52.422;10.782;2023-06-14T00:18:20;15.40;77.00
39847;DHT22;25517;52.422;10.782;2023-06-14T00:20:49;15.30;77.20
39847;DHT22;25517;52.422;10.782;2023-06-14T00:23:16;15.30;77.60
39847;DHT22;25517;52.422;10.782;2023-06-14T00:25:42;15.20;78.00
39847;DHT22;25517;52.422;10.782;2023-06-14T00:28:07;15.20;78.30
39847;DHT22;25517;52.422;10.782;2023-06-14T00:30:34;15.20;77.90
39847;DHT22;25517;52.422;10.782;2023-06-14T00:32:59;15.10;77.70
39847;DHT22;25517;52.422;10.782;2023-06-14T00:35:25;15.00;78.20
39847;DHT22;25517;52.422;10.782;2023-06-14T00:37:51;15.00;77.70
39847;DHT22;25517;52.422;10.782;2023-06-14T00:40:16;15.10;78.50
39847;DHT22;25517;52.422;10.782;2023-06-14T00:42:42;15.00;78.60
39847;DHT22;25517;52.422;10.782;2023-06-14T00:45:08;15.00;78.30
39847;DHT22;25517;52.422;10.782;2023-06-14T00:47:35;14.90;78.50
39847;DHT22;25517;52.422;10.782;2023-06-14T00:50:02;14.90;78.30
39847;DHT22;25517;52.422;10.782;2023-06-14T00:52:29;14.90;78.60
39847;DHT22;25517;52.422;10.782;2023-06-14T00:54:54;14.90;78.50
39847;DHT22;25517;52.422;10.782;2023-06-14T00:57:20;14.90;78.60
39847;DHT22;25517;52.422;10.782;2023-06-14T00:59:48;14.90;79.40
39847;DHT22;25517;52.422;10.782;2023-06-14T01:02:14;14.80;80.10
39847;DHT22;25517;52.422;10.782;2023-06-14T01:04:41;14.80;79.30
39847;DHT22;25517;52.422;10.782;2023-06-14T01:07:08;14.70;79.50
39847;DHT22;25517;52.422;10.782;2023-06-14T01:12:51;14.70;80.10
39847;DHT22;25517;52.422;10.782;2023-06-14T01:15:18;14.70;79.40
39847;DHT22;25517;52.422;10.782;2023-06-14T01:17:45;14.70;80.30
39847;DHT22;25517;52.422;10.782;2023-06-14T01:20:12;14.70;79.90
39847;DHT22;25517;52.422;10.782;2023-06-14T01:22:53;14.70;80.10
39847;DHT22;25517;52.422;10.782;2023-06-14T01:25:19;14.60;80.00
39847;DHT22;25517;52.422;10.782;2023-06-14T01:27:48;14.60;81.10
39847;DHT22;25517;52.422;10.782;2023-06-14T01:30:15;14.60;80.60
39847;DHT22;25517;52.422;10.782;2023-06-14T01:32:40;14.50;80.60
39847;DHT22;25517;52.422;10.782;2023-06-14T01:35:06;14.50;81.00
39847;DHT22;25517;52.422;10.782;2023-06-14T01:37:32;14.50;81.10
39847;DHT22;25517;52.422;10.782;2023-06-14T01:39:59;14.40;81.80
39847;DHT22;25517;52.422;10.782;2023-06-14T01:42:25;14.30;81.60
39847;DHT22;25517;52.422;10.782;2023-06-14T01:44:51;14.30;82.00
39847;DHT22;25517;52.422;10.782;2023-06-14T01:47:18;14.20;82.90
39847;DHT22;25517;52.422;10.782;2023-06-14T01:49:46;14.20;82.50
39847;DHT22;25517;52.422;10.782;2023-06-14T01:52:12;14.20;82.50
39847;DHT22;25517;52.422;10.782;2023-06-14T01:54:37;14.20;83.20
39847;DHT22;25517;52.422;10.782;2023-06-14T01:57:08;14.10;83.10
39847;DHT22;25517;52.422;10.782;2023-06-14T01:59:33;14.00;83.10
39847;DHT22;25517;52.422;10.782;2023-06-14T02:02:02;14.00;83.40
39847;DHT22;25517;52.422;10.782;2023-06-14T02:04:27;14.00;84.30
39847;DHT22;25517;52.422;10.782;2023-06-14T02:06:53;13.90;84.50
39847;DHT22;25517;52.422;10.782;2023-06-14T02:09:18;13.90;85.20
39847;DHT22;25517;52.422;10.782;2023-06-14T02:11:44;13.80;85.10
39847;DHT22;25517;52.422;10.782;2023-06-14T02:14:09;13.70;85.70
39847;DHT22;25517;52.422;10.782;2023-06-14T02:16:37;13.70;86.50
39847;DHT22;25517;52.422;10.782;2023-06-14T02:19:04;13.70;86.20
39847;DHT22;25517;52.422;10.782;2023-06-14T02:21:30;13.70;86.50
39847;DHT22;25517;52.422;10.782;2023-06-14T02:23:55;13.60;86.70
39847;DHT22;25517;52.422;10.782;2023-06-14T02:26:21;13.60;87.30
39847;DHT22;25517;52.422;10.782;2023-06-14T02:28:48;13.60;87.80
39847;DHT22;25517;52.422;10.782;2023-06-14T02:31:13;13.50;88.00
39847;DHT22;25517;52.422;10.782;2023-06-14T02:33:40;13.40;88.90
39847;DHT22;25517;52.422;10.782;2023-06-14T02:36:06;13.40;89.40
39847;DHT22;25517;52.422;10.782;2023-06-14T02:38:31;13.50;89.10
39847;DHT22;25517;52.422;10.782;2023-06-14T02:40:57;13.40;89.50
39847;DHT22;25517;52.422;10.782;2023-06-14T02:43:24;13.30;90.00
39847;DHT22;25517;52.422;10.782;2023-06-14T02:45:50;13.30;90.10
39847;DHT22;25517;52.422;10.782;2023-06-14T02:48:15;13.30;90.20
39847;DHT22;25517;52.422;10.782;2023-06-14T02:50:41;13.30;90.40
39847;DHT22;25517;52.422;10.782;2023-06-14T02:53:07;13.20;90.50
39847;DHT22;25517;52.422;10.782;2023-06-14T02:55:33;13.30;90.60
39847;DHT22;25517;52.422;10.782;2023-06-14T02:57:58;13.10;90.80
39847;DHT22;25517;52.422;10.782;2023-06-14T03:00:24;13.20;90.80
39847;DHT22;25517;52.422;10.782;2023-06-14T03:02:49;13.20;91.00
39847;DHT22;25517;52.422;10.782;2023-06-14T03:05:16;13.20;91.00
39847;DHT22;25517;52.422;10.782;2023-06-14T03:07:45;13.20;91.50
39847;DHT22;25517;52.422;10.782;2023-06-14T03:10:12;13.10;91.70
39847;DHT22;25517;52.422;10.782;2023-06-14T03:12:39;13.10;92.00
39847;DHT22;25517;52.422;10.782;2023-06-14T03:15:05;13.00;92.20
39847;DHT22;25517;52.422;10.782;2023-06-14T03:17:30;13.00;92.50
39847;DHT22;25517;52.422;10.782;2023-06-14T03:19:59;13.00;92.50
39847;DHT22;25517;52.422;10.782;2023-06-14T03:22:25;13.00;92.90
39847;DHT22;25517;52.422;10.782;2023-06-14T03:24:51;12.90;93.10
39847;DHT22;25517;52.422;10.782;2023-06-14T03:27:17;12.90;93.30
39847;DHT22;25517;52.422;10.782;2023-06-14T03:29:44;12.90;93.80
39847;DHT22;25517;52.422;10.782;2023-06-14T03:32:09;12.90;94.00
39847;DHT22;25517;52.422;10.782;2023-06-14T03:34:35;12.90;94.10
39847;DHT22;25517;52.422;10.782;2023-06-14T03:37:00;12.90;94.40
39847;DHT22;25517;52.422;10.782;2023-06-14T03:39:26;12.90;94.50
39847;DHT22;25517;52.422;10.782;2023-06-14T03:41:52;12.90;95.10
39847;DHT22;25517;52.422;10.782;2023-06-14T03:44:18;12.90;95.20
39847;DHT22;25517;52.422;10.782;2023-06-14T03:46:45;12.90;95.50
39847;DHT22;25517;52.422;10.782;2023-06-14T03:49:11;12.90;95.60
39847;DHT22;25517;52.422;10.782;2023-06-14T03:51:37;12.90;96.00
39847;DHT22;25517;52.422;10.782;2023-06-14T03:54:02;12.90;96.20
39847;DHT22;25517;52.422;10.782;2023-06-14T03:56:28;12.90;96.40
39847;DHT22;25517;52.422;10.782;2023-06-14T03:58:53;13.00;96.50
39847;DHT22;25517;52.422;10.782;2023-06-14T04:01:19;13.00;97.10
39847;DHT22;25517;52.422;10.782;2023-06-14T04:03:45;13.00;97.10
39847;DHT22;25517;52.422;10.782;2023-06-14T04:06:11;13.00;97.20
39847;DHT22;25517;52.422;10.782;2023-06-14T04:08:36;13.00;97.50
39847;DHT22;25517;52.422;10.782;2023-06-14T04:11:05;13.00;98.20
39847;DHT22;25517;52.422;10.782;2023-06-14T04:13:30;13.00;98.10
39847;DHT22;25517;52.422;10.782;2023-06-14T04:15:57;13.00;98.50
39847;DHT22;25517;52.422;10.782;2023-06-14T04:18:22;13.10;98.60
39847;DHT22;25517;52.422;10.782;2023-06-14T04:20:49;13.10;99.00
39847;DHT22;25517;52.422;10.782;2023-06-14T04:23:16;13.10;99.10
39847;DHT22;25517;52.422;10.782;2023-06-14T04:25:44;13.10;99.70
39847;DHT22;25517;52.422;10.782;2023-06-14T04:28:15;13.10;99.60
39847;DHT22;25517;52.422;10.782;2023-06-14T04:30:44;13.10;99.50
39847;DHT22;25517;52.422;10.782;2023-06-14T04:33:10;13.20;99.80
39847;DHT22;25517;52.422;10.782;2023-06-14T04:35:36;13.20;99.90
39847;DHT22;25517;52.422;10.782;2023-06-14T04:38:03;13.20;99.90
39847;DHT22;25517;52.422;10.782;2023-06-14T04:40:30;13.20;99.90
39847;DHT22;25517;52.422;10.782;2023-06-14T04:42:56;13.30;99.90
39847;DHT22;25517;52.422;10.782;2023-06-14T04:45:23;13.30;99.90
39847;DHT22;25517;52.422;10.782;2023-06-14T04:47:49;13.30;99.90
39847;DHT22;25517;52.422;10.782;2023-06-14T04:50:16;13.40;99.90
39847;DHT22;25517;52.422;10.782;2023-06-14T04:52:42;13.40;99.90
39847;DHT22;25517;52.422;10.782;2023-06-14T04:55:08;13.50;99.90
39847;DHT22;25517;52.422;10.782;2023-06-14T04:57:33;13.60;99.90
39847;DHT22;25517;52.422;10.782;2023-06-14T05:00:00;13.60;99.90
39847;DHT22;25517;52.422;10.782;2023-06-14T05:02:26;13.70;99.90
39847;DHT22;25517;52.422;10.782;2023-06-14T05:04:53;13.70;99.90
39847;DHT22;25517;52.422;10.782;2023-06-14T05:07:18;13.80;99.90
39847;DHT22;25517;52.422;10.782;2023-06-14T05:09:45;13.90;99.90
39847;DHT22;25517;52.422;10.782;2023-06-14T05:12:11;13.90;99.90
39847;DHT22;25517;52.422;10.782;2023-06-14T05:14:37;13.90;99.90
39847;DHT22;25517;52.422;10.782;2023-06-14T05:17:02;14.00;99.90
39847;DHT22;25517;52.422;10.782;2023-06-14T05:19:28;14.00;99.90
39847;DHT22;25517;52.422;10.782;2023-06-14T05:21:54;14.00;99.90
39847;DHT22;25517;52.422;10.782;2023-06-14T05:24:19;14.00;99.90
39847;DHT22;25517;52.422;10.782;2023-06-14T05:26:46;14.10;99.90
39847;DHT22;25517;52.422;10.782;2023-06-14T05:29:12;14.10;99.90
39847;DHT22;25517;52.422;10.782;2023-06-14T05:31:37;14.20;99.90
39847;DHT22;25517;52.422;10.782;2023-06-14T05:34:03;14.20;99.90
39847;DHT22;25517;52.422;10.782;2023-06-14T05:36:29;14.20;99.90
39847;DHT22;25517;52.422;10.782;2023-06-14T05:38:55;14.30;99.90
39847;DHT22;25517;52.422;10.782;2023-06-14T05:41:28;14.40;99.90
39847;DHT22;25517;52.422;10.782;2023-06-14T05:43:55;14.40;99.90
39847;DHT22;25517;52.422;10.782;2023-06-14T05:46:20;14.50;99.90
39847;DHT22;25517;52.422;10.782;2023-06-14T05:48:50;14.50;99.90
39847;DHT22;25517;52.422;10.782;2023-06-14T05:51:16;14.60;99.90
39847;DHT22;25517;52.422;10.782;2023-06-14T05:53:50;14.60;99.90
39847;DHT22;25517;52.422;10.782;2023-06-14T05:56:17;14.70;99.90
39847;DHT22;25517;52.422;10.782;2023-06-14T05:58:46;14.80;99.90
39847;DHT22;25517;52.422;10.782;2023-06-14T06:01:11;14.80;99.90
39847;DHT22;25517;52.422;10.782;2023-06-14T06:03:38;14.90;99.90
39847;DHT22;25517;52.422;10.782;2023-06-14T06:06:04;15.00;99.90
39847;DHT22;25517;52.422;10.782;2023-06-14T06:08:30;15.10;99.90
39847;DHT22;25517;52.422;10.782;2023-06-14T06:10:56;15.30;99.90
39847;DHT22;25517;52.422;10.782;2023-06-14T06:13:22;15.40;99.90
39847;DHT22;25517;52.422;10.782;2023-06-14T06:15:48;15.50;99.90
39847;DHT22;25517;52.422;10.782;2023-06-14T06:18:14;15.60;99.90
39847;DHT22;25517;52.422;10.782;2023-06-14T06:20:39;15.60;99.80
39847;DHT22;25517;52.422;10.782;2023-06-14T06:23:05;15.70;99.10
39847;DHT22;25517;52.422;10.782;2023-06-14T06:25:30;15.80;98.50
39847;DHT22;25517;52.422;10.782;2023-06-14T06:27:57;16.00;97.80
39847;DHT22;25517;52.422;10.782;2023-06-14T06:30:23;16.00;97.50
39847;DHT22;25517;52.422;10.782;2023-06-14T06:32:49;16.10;97.40
39847;DHT22;25517;52.422;10.782;2023-06-14T06:35:14;16.20;97.20
39847;DHT22;25517;52.422;10.782;2023-06-14T06:37:41;16.30;96.70
39847;DHT22;25517;52.422;10.782;2023-06-14T06:40:07;16.30;96.60
39847;DHT22;25517;52.422;10.782;2023-06-14T06:42:34;16.40;96.00
39847;DHT22;25517;52.422;10.782;2023-06-14T06:44:59;16.60;95.70
39847;DHT22;25517;52.422;10.782;2023-06-14T06:47:25;16.60;95.70
39847;DHT22;25517;52.422;10.782;2023-06-14T06:49:51;16.70;94.90
39847;DHT22;25517;52.422;10.782;2023-06-14T06:52:16;16.80;94.90
39847;DHT22;25517;52.422;10.782;2023-06-14T06:54:42;16.90;95.20
39847;DHT22;25517;52.422;10.782;2023-06-14T06:57:08;16.90;94.80
39847;DHT22;25517;52.422;10.782;2023-06-14T06:59:34;17.00;94.70
39847;DHT22;25517;52.422;10.782;2023-06-14T07:02:00;17.20;94.40
39847;DHT22;25517;52.422;10.782;2023-06-14T07:04:25;17.40;94.00
39847;DHT22;25517;52.422;10.782;2023-06-14T07:06:51;17.40;93.20
39847;DHT22;25517;52.422;10.782;2023-06-14T07:09:16;17.50;93.40
39847;DHT22;25517;52.422;10.782;2023-06-14T07:11:46;17.50;92.10
39847;DHT22;25517;52.422;10.782;2023-06-14T07:14:12;17.60;92.50
39847;DHT22;25517;52.422;10.782;2023-06-14T07:16:38;17.70;92.30
39847;DHT22;25517;52.422;10.782;2023-06-14T07:19:04;17.90;91.90
39847;DHT22;25517;52.422;10.782;2023-06-14T07:21:30;18.00;91.70
39847;DHT22;25517;52.422;10.782;2023-06-14T07:23:56;18.20;90.60
39847;DHT22;25517;52.422;10.782;2023-06-14T07:26:22;18.40;90.00
39847;DHT22;25517;52.422;10.782;2023-06-14T07:28:48;18.50;88.00
39847;DHT22;25517;52.422;10.782;2023-06-14T07:31:15;18.70;86.80
39847;DHT22;25517;52.422;10.782;2023-06-14T07:33:41;18.70;84.90
39847;DHT22;25517;52.422;10.782;2023-06-14T07:36:07;18.80;83.90
39847;DHT22;25517;52.422;10.782;2023-06-14T07:38:33;19.00;83.60
39847;DHT22;25517;52.422;10.782;2023-06-14T07:40:59;19.00;83.30
39847;DHT22;25517;52.422;10.782;2023-06-14T07:43:24;19.10;80.60
39847;DHT22;25517;52.422;10.782;2023-06-14T07:45:50;19.20;80.70
39847;DHT22;25517;52.422;10.782;2023-06-14T07:48:15;19.20;80.20
39847;DHT22;25517;52.422;10.782;2023-06-14T07:50:41;19.30;81.60
39847;DHT22;25517;52.422;10.782;2023-06-14T07:53:07;19.50;80.80
39847;DHT22;25517;52.422;10.782;2023-06-14T07:55:33;19.80;79.00
39847;DHT22;25517;52.422;10.782;2023-06-14T07:58:05;20.00;79.40
39847;DHT22;25517;52.422;10.782;2023-06-14T08:00:31;20.10;78.70
39847;DHT22;25517;52.422;10.782;2023-06-14T08:02:57;20.30;78.00
39847;DHT22;25517;52.422;10.782;2023-06-14T08:05:28;20.50;77.20
39847;DHT22;25517;52.422;10.782;2023-06-14T08:07:53;20.80;76.90
39847;DHT22;25517;52.422;10.782;2023-06-14T08:10:19;21.20;75.90
39847;DHT22;25517;52.422;10.782;2023-06-14T08:12:45;22.00;73.40
39847;DHT22;25517;52.422;10.782;2023-06-14T08:15:11;23.40;69.50
39847;DHT22;25517;52.422;10.782;2023-06-14T08:17:36;24.40;66.40
39847;DHT22;25517;52.422;10.782;2023-06-14T08:20:03;25.30;62.40
39847;DHT22;25517;52.422;10.782;2023-06-14T08:22:30;25.90;60.90
39847;DHT22;25517;52.422;10.782;2023-06-14T08:25:02;26.90;58.70
39847;DHT22;25517;52.422;10.782;2023-06-14T08:27:27;27.60;57.30
39847;DHT22;25517;52.422;10.782;2023-06-14T08:29:53;28.20;54.70
39847;DHT22;25517;52.422;10.782;2023-06-14T08:32:19;28.80;53.40
39847;DHT22;25517;52.422;10.782;2023-06-14T08:34:44;29.20;51.60
39847;DHT22;25517;52.422;10.782;2023-06-14T08:37:10;28.90;51.70
39847;DHT22;25517;52.422;10.782;2023-06-14T08:39:36;29.70;51.90
39847;DHT22;25517;52.422;10.782;2023-06-14T08:42:02;30.60;49.70
39847;DHT22;25517;52.422;10.782;2023-06-14T08:44:29;31.00;48.60
39847;DHT22;25517;52.422;10.782;2023-06-14T08:46:56;31.80;48.00
39847;DHT22;25517;52.422;10.782;2023-06-14T08:49:25;32.30;47.30
39847;DHT22;25517;52.422;10.782;2023-06-14T08:51:57;32.70;47.30
39847;DHT22;25517;52.422;10.782;2023-06-14T08:54:25;34.00;44.70
39847;DHT22;25517;52.422;10.782;2023-06-14T08:56:54;34.20;43.80
39847;DHT22;25517;52.422;10.782;2023-06-14T08:59:24;34.10;43.60
39847;DHT22;25517;52.422;10.782;2023-06-14T09:01:51;34.50;44.20
39847;DHT22;25517;52.422;10.782;2023-06-14T09:04:18;34.70;42.50
39847;DHT22;25517;52.422;10.782;2023-06-14T09:06:45;34.20;42.60
39847;DHT22;25517;52.422;10.782;2023-06-14T09:09:10;34.20;44.10
39847;DHT22;25517;52.422;10.782;2023-06-14T09:11:38;34.60;43.30
39847;DHT22;25517;52.422;10.782;2023-06-14T09:14:03;35.20;41.70
39847;DHT22;25517;52.422;10.782;2023-06-14T09:16:32;35.00;42.00
39847;DHT22;25517;52.422;10.782;2023-06-14T09:18:57;35.20;42.80
39847;DHT22;25517;52.422;10.782;2023-06-14T09:21:23;35.60;42.60
39847;DHT22;25517;52.422;10.782;2023-06-14T09:23:49;35.40;41.80
39847;DHT22;25517;52.422;10.782;2023-06-14T09:26:18;36.00;41.70
39847;DHT22;25517;52.422;10.782;2023-06-14T09:28:49;35.90;42.00
39847;DHT22;25517;52.422;10.782;2023-06-14T09:31:19;35.80;42.00
39847;DHT22;25517;52.422;10.782;2023-06-14T09:33:45;36.10;41.10
39847;DHT22;25517;52.422;10.782;2023-06-14T09:36:20;35.90;41.10
39847;DHT22;25517;52.422;10.782;2023-06-14T09:41:42;35.90;41.60
39847;DHT22;25517;52.422;10.782;2023-06-14T09:44:09;35.70;42.30
39847;DHT22;25517;52.422;10.782;2023-06-14T09:46:36;35.60;42.60
39847;DHT22;25517;52.422;10.782;2023-06-14T09:49:03;35.90;41.90
39847;DHT22;25517;52.422;10.782;2023-06-14T09:51:30;35.70;41.40
39847;DHT22;25517;52.422;10.782;2023-06-14T09:54:00;34.90;41.90
39847;DHT22;25517;52.422;10.782;2023-06-14T09:56:28;33.20;43.60
39847;DHT22;25517;52.422;10.782;2023-06-14T09:58:56;32.10;46.10
39847;DHT22;25517;52.422;10.782;2023-06-14T10:01:24;31.80;46.50
39847;DHT22;25517;52.422;10.782;2023-06-14T10:03:50;31.00;46.90
39847;DHT22;25517;52.422;10.782;2023-06-14T10:06:19;31.10;47.30
39847;DHT22;25517;52.422;10.782;2023-06-14T10:08:47;31.20;47.30
39847;DHT22;25517;52.422;10.782;2023-06-14T10:11:14;30.50;48.50
39847;DHT22;25517;52.422;10.782;2023-06-14T10:13:39;30.90;47.60
39847;DHT22;25517;52.422;10.782;2023-06-14T10:16:07;30.50;48.20
39847;DHT22;25517;52.422;10.782;2023-06-14T10:18:49;29.50;50.10
39847;DHT22;25517;52.422;10.782;2023-06-14T10:21:28;29.50;50.70
39847;DHT22;25517;52.422;10.782;2023-06-14T10:24:01;29.20;51.60
39847;DHT22;25517;52.422;10.782;2023-06-14T10:26:28;30.50;51.60
39847;DHT22;25517;52.422;10.782;2023-06-14T10:29:20;31.20;49.40
39847;DHT22;25517;52.422;10.782;2023-06-14T10:31:50;30.20;49.80
39847;DHT22;25517;52.422;10.782;2023-06-14T10:34:25;29.70;51.30
39847;DHT22;25517;52.422;10.782;2023-06-14T10:37:05;30.20;50.60
39847;DHT22;25517;52.422;10.782;2023-06-14T10:39:41;29.90;50.00
39847;DHT22;25517;52.422;10.782;2023-06-14T10:42:07;29.60;49.80
39847;DHT22;25517;52.422;10.782;2023-06-14T10:47:20;32.10;48.20
39847;DHT22;25517;52.422;10.782;2023-06-14T10:49:51;32.10;48.10
39847;DHT22;25517;52.422;10.782;2023-06-14T10:52:17;33.10;47.20
39847;DHT22;25517;52.422;10.782;2023-06-14T10:55:06;32.40;47.40
39847;DHT22;25517;52.422;10.782;2023-06-14T10:57:35;31.40;48.10
39847;DHT22;25517;52.422;10.782;2023-06-14T11:00:03;30.40;49.00
39847;DHT22;25517;52.422;10.782;2023-06-14T11:06:13;30.40;48.90
39847;DHT22;25517;52.422;10.782;2023-06-14T11:08:56;30.10;48.50
39847;DHT22;25517;52.422;10.782;2023-06-14T11:11:32;30.30;48.70
39847;DHT22;25517;52.422;10.782;2023-06-14T11:14:00;31.90;48.00
39847;DHT22;25517;52.422;10.782;2023-06-14T11:16:26;31.90;47.90
39847;DHT22;25517;52.422;10.782;2023-06-14T11:18:53;31.70;47.20
39847;DHT22;25517;52.422;10.782;2023-06-14T11:21:19;31.40;47.50
39847;DHT22;25517;52.422;10.782;2023-06-14T11:23:51;31.30;47.80
39847;DHT22;25517;52.422;10.782;2023-06-14T11:26:28;32.30;45.70
39847;DHT22;25517;52.422;10.782;2023-06-14T11:28:58;33.10;46.10
39847;DHT22;25517;52.422;10.782;2023-06-14T11:31:24;33.20;45.60
39847;DHT22;25517;52.422;10.782;2023-06-14T11:33:50;33.30;44.00
39847;DHT22;25517;52.422;10.782;2023-06-14T11:36:16;32.70;44.20
39847;DHT22;25517;52.422;10.782;2023-06-14T11:38:42;33.10;44.60
39847;DHT22;25517;52.422;10.782;2023-06-14T11:41:07;32.70;44.80
39847;DHT22;25517;52.422;10.782;2023-06-14T11:43:33;31.50;45.90
39847;DHT22;25517;52.422;10.782;2023-06-14T11:46:00;30.90;45.90
39847;DHT22;25517;52.422;10.782;2023-06-14T11:48:45;30.40;47.20
39847;DHT22;25517;52.422;10.782;2023-06-14T11:51:11;30.30;47.30
39847;DHT22;25517;52.422;10.782;2023-06-14T11:53:37;29.40;48.10
39847;DHT22;25517;52.422;10.782;2023-06-14T11:56:03;28.70;49.90
39847;DHT22;25517;52.422;10.782;2023-06-14T11:58:29;28.10;50.90
39847;DHT22;25517;52.422;10.782;2023-06-14T12:00:56;27.40;51.40
39847;DHT22;25517;52.422;10.782;2023-06-14T12:03:25;27.10;51.90
39847;DHT22;25517;52.422;10.782;2023-06-14T12:06:25;26.80;52.50
39847;DHT22;25517;52.422;10.782;2023-06-14T12:08:55;26.70;53.10
39847;DHT22;25517;52.422;10.782;2023-06-14T12:11:22;26.70;53.10
39847;DHT22;25517;52.422;10.782;2023-06-14T12:13:48;26.70;52.80
39847;DHT22;25517;52.422;10.782;2023-06-14T12:16:14;26.50;52.80
39847;DHT22;25517;52.422;10.782;2023-06-14T12:18:40;27.00;52.40
39847;DHT22;25517;52.422;10.782;2023-06-14T12:21:07;26.90;51.90
39847;DHT22;25517;52.422;10.782;2023-06-14T12:23:49;26.50;53.20
39847;DHT22;25517;52.422;10.782;2023-06-14T12:26:17;26.40;53.70
39847;DHT22;25517;52.422;10.782;2023-06-14T12:28:44;26.30;52.80
39847;DHT22;25517;52.422;10.782;2023-06-14T12:31:13;26.20;53.40
39847;DHT22;25517;52.422;10.782;2023-06-14T12:33:40;26.30;53.00
39847;DHT22;25517;52.422;10.782;2023-06-14T12:36:10;26.30;52.70
39847;DHT22;25517;52.422;10.782;2023-06-14T12:38:37;27.00;53.00
39847;DHT22;25517;52.422;10.782;2023-06-14T12:41:03;27.80;51.40
39847;DHT22;25517;52.422;10.782;2023-06-14T12:43:29;28.20;51.10
39847;DHT22;25517;52.422;10.782;2023-06-14T12:45:54;28.20;49.60
39847;DHT22;25517;52.422;10.782;2023-06-14T12:48:20;28.10;50.10
39847;DHT22;25517;52.422;10.782;2023-06-14T12:53:12;28.60;50.10
39847;DHT22;25517;52.422;10.782;2023-06-14T12:55:38;29.00;48.80
39847;DHT22;25517;52.422;10.782;2023-06-14T12:58:04;28.60;49.10
39847;DHT22;25517;52.422;10.782;2023-06-14T13:00:30;28.30;50.10
39847;DHT22;25517;52.422;10.782;2023-06-14T13:02:57;27.90;50.10
39847;DHT22;25517;52.422;10.782;2023-06-14T13:05:23;27.60;50.50
39847;DHT22;25517;52.422;10.782;2023-06-14T13:07:49;27.10;51.50
39847;DHT22;25517;52.422;10.782;2023-06-14T13:10:16;26.80;51.90
39847;DHT22;25517;52.422;10.782;2023-06-14T13:12:42;26.70;51.60
39847;DHT22;25517;52.422;10.782;2023-06-14T13:15:10;26.60;51.60
39847;DHT22;25517;52.422;10.782;2023-06-14T13:17:36;26.60;52.50
39847;DHT22;25517;52.422;10.782;2023-06-14T13:20:07;26.60;51.70
39847;DHT22;25517;52.422;10.782;2023-06-14T13:22:34;26.40;52.50
39847;DHT22;25517;52.422;10.782;2023-06-14T13:25:00;26.30;52.30
39847;DHT22;25517;52.422;10.782;2023-06-14T13:27:26;26.20;52.20
39847;DHT22;25517;52.422;10.782;2023-06-14T13:29:52;26.20;52.50
39847;DHT22;25517;52.422;10.782;2023-06-14T13:32:20;26.20;52.70
39847;DHT22;25517;52.422;10.782;2023-06-14T13:34:46;26.60;52.00
39847;DHT22;25517;52.422;10.782;2023-06-14T13:37:11;27.10;51.90
39847;DHT22;25517;52.422;10.782;2023-06-14T13:39:37;27.50;51.50
39847;DHT22;25517;52.422;10.782;2023-06-14T13:42:03;28.00;50.40
39847;DHT22;25517;52.422;10.782;2023-06-14T13:44:29;28.40;49.80
39847;DHT22;25517;52.422;10.782;2023-06-14T13:46:54;28.40;49.30
39847;DHT22;25517;52.422;10.782;2023-06-14T13:49:20;28.00;49.40
39847;DHT22;25517;52.422;10.782;2023-06-14T13:51:46;27.60;49.50
39847;DHT22;25517;52.422;10.782;2023-06-14T13:54:12;27.30;49.90
39847;DHT22;25517;52.422;10.782;2023-06-14T13:56:39;27.20;51.10
39847;DHT22;25517;52.422;10.782;2023-06-14T13:59:05;27.40;50.50
39847;DHT22;25517;52.422;10.782;2023-06-14T14:01:31;27.80;50.00
39847;DHT22;25517;52.422;10.782;2023-06-14T14:03:56;28.10;49.80
39847;DHT22;25517;52.422;10.782;2023-06-14T14:06:23;28.30;49.90
39847;DHT22;25517;52.422;10.782;2023-06-14T14:08:49;28.50;48.60
39847;DHT22;25517;52.422;10.782;2023-06-14T14:11:15;28.40;48.60
39847;DHT22;25517;52.422;10.782;2023-06-14T14:13:41;28.40;48.60
39847;DHT22;25517;52.422;10.782;2023-06-14T14:16:08;27.90;47.30
39847;DHT22;25517;52.422;10.782;2023-06-14T14:18:34;27.90;49.00
39847;DHT22;25517;52.422;10.782;2023-06-14T14:21:00;28.00;49.00
39847;DHT22;25517;52.422;10.782;2023-06-14T14:23:27;28.00;48.80
39847;DHT22;25517;52.422;10.782;2023-06-14T14:25:53;28.00;48.50
39847;DHT22;25517;52.422;10.782;2023-06-14T14:28:18;27.80;48.00
39847;DHT22;25517;52.422;10.782;2023-06-14T14:30:46;27.70;48.60
39847;DHT22;25517;52.422;10.782;2023-06-14T14:33:13;27.30;49.40
39847;DHT22;25517;52.422;10.782;2023-06-14T14:35:44;27.10;49.70
39847;DHT22;25517;52.422;10.782;2023-06-14T14:38:14;26.80;50.00
39847;DHT22;25517;52.422;10.782;2023-06-14T14:40:41;26.30;50.90
39847;DHT22;25517;52.422;10.782;2023-06-14T14:43:07;26.00;51.70
39847;DHT22;25517;52.422;10.782;2023-06-14T14:45:32;26.00;52.50
39847;DHT22;25517;52.422;10.782;2023-06-14T14:47:58;26.30;52.30
39847;DHT22;25517;52.422;10.782;2023-06-14T14:50:25;26.70;51.80
39847;DHT22;25517;52.422;10.782;2023-06-14T14:52:51;27.20;51.80
39847;DHT22;25517;52.422;10.782;2023-06-14T14:55:16;27.20;50.70
39847;DHT22;25517;52.422;10.782;2023-06-14T14:57:43;27.00;51.60
39847;DHT22;25517;52.422;10.782;2023-06-14T15:00:09;26.80;51.10
39847;DHT22;25517;52.422;10.782;2023-06-14T15:02:35;26.50;51.70
39847;DHT22;25517;52.422;10.782;2023-06-14T15:05:01;26.20;51.40
39847;DHT22;25517;52.422;10.782;2023-06-14T15:07:28;25.90;51.70
39847;DHT22;25517;52.422;10.782;2023-06-14T15:09:54;25.80;52.20
39847;DHT22;25517;52.422;10.782;2023-06-14T15:12:20;25.50;52.80
39847;DHT22;25517;52.422;10.782;2023-06-14T15:14:51;25.30;52.90
39847;DHT22;25517;52.422;10.782;2023-06-14T15:17:18;25.20;54.00
39847;DHT22;25517;52.422;10.782;2023-06-14T15:19:45;25.20;53.80
39847;DHT22;25517;52.422;10.782;2023-06-14T15:22:10;25.10;53.80
39847;DHT22;25517;52.422;10.782;2023-06-14T15:24:36;25.00;54.10
39847;DHT22;25517;52.422;10.782;2023-06-14T15:27:02;25.00;54.20
39847;DHT22;25517;52.422;10.782;2023-06-14T15:29:28;25.00;54.80